Terminal Aerodrome Forecast
Issued by NWS

Home | Current Version | Previous Version | Graphics & Text | Print | Product List | Glossary On
Versions: 1 2 3 4 5 6 7 8 9 10 11 12 13 14 15 16 17 18
000
FTUS43 KTOP 242154 AAC
TAFFOE
TAF AMD
KFOE 242154Z 2422/2518 12014KT P6SM VCTS SCT045CB SCT100
      TEMPO 2422/2423 2SM TSRA FEW020 BKN045CB
     FM250000 16011KT P6SM FEW030 SCT110
     FM250800 18005KT P6SM VCTS SCT060CB BKN100
     FM251300 20008KT P6SM FEW030 SCT110=

USA.gov is the U.S. government's official web portal to all federal, state and local government web resources and services.